Terminal Aerodrome Forecast
Issued by NWS

Current Version | Previous Version | Text Only | Print | Product List | Glossary On
Versions: 1 2 3 4 5 6 7 8 9 10 11 12 13 14 15 16
323
FTAK31 PAJN 240535
TAFASI
TAF
PASI 240535Z 2406/2506 18012KT P6SM -RA SCT015 BKN035 OVC060
      TEMPO 2406/2410 16012G20KT 3SM -RA BR FEW006 BKN015 OVC025
     FM241000 16015G25KT 6SM -RA SCT006 BKN015 OVC020
      TEMPO 2410/2414 2SM RA BR BKN006 OVC015
     FM241600 18012G20KT P6SM -SHRA SCT010 OVC025
     FM242200 24012KT P6SM -SHRA SCT020 OVC040 PROB30 2422/2504 4SM
      SHRA OVC020=

USA.gov is the U.S. government's official web portal to all federal, state and local government web resources and services.